sensor_id;sensor_type;location;lat;lon;timestamp;pressure;altitude;pressure_sealevel;temperature;humidity
62055;BME280;48653;51.742;-1.256;2023-04-01T00:01:50;99269.63;;;11.42;58.95
62055;BME280;48653;51.742;-1.256;2023-04-01T00:04:15;99270.12;;;10.82;60.23
62055;BME280;48653;51.742;-1.256;2023-04-01T00:06:40;99276.37;;;10.72;61.03
62055;BME280;48653;51.742;-1.256;2023-04-01T00:09:05;99273.31;;;10.75;60.37
62055;BME280;48653;51.742;-1.256;2023-04-01T00:11:32;99277.79;;;10.77;60.34
62055;BME280;48653;51.742;-1.256;2023-04-01T00:13:56;99279.24;;;11.58;58.80
62055;BME280;48653;51.742;-1.256;2023-04-01T00:16:21;99282.89;;;11.12;58.93
62055;BME280;48653;51.742;-1.256;2023-04-01T00:18:48;99283.72;;;11.72;57.70
62055;BME280;48653;51.742;-1.256;2023-04-01T00:21:12;99288.30;;;11.84;57.91
62055;BME280;48653;51.742;-1.256;2023-04-01T00:23:37;99288.97;;;11.65;58.24
62055;BME280;48653;51.742;-1.256;2023-04-01T00:26:03;99289.83;;;11.41;58.91
62055;BME280;48653;51.742;-1.256;2023-04-01T00:28:28;99294.23;;;11.38;58.34
62055;BME280;48653;51.742;-1.256;2023-04-01T00:30:52;99293.77;;;10.95;59.63
62055;BME280;48653;51.742;-1.256;2023-04-01T00:33:18;99299.90;;;11.49;58.59
62055;BME280;48653;51.742;-1.256;2023-04-01T00:35:44;99302.59;;;11.54;58.15
62055;BME280;48653;51.742;-1.256;2023-04-01T00:38:09;99303.33;;;11.78;58.18
62055;BME280;48653;51.742;-1.256;2023-04-01T00:40:37;99306.78;;;11.83;58.07
62055;BME280;48653;51.742;-1.256;2023-04-01T00:42:59;99309.72;;;11.13;59.24
62055;BME280;48653;51.742;-1.256;2023-04-01T00:45:29;99310.14;;;11.38;58.84
62055;BME280;48653;51.742;-1.256;2023-04-01T00:47:50;99310.28;;;11.72;58.81
62055;BME280;48653;51.742;-1.256;2023-04-01T00:50:15;99313.36;;;11.19;59.24
62055;BME280;48653;51.742;-1.256;2023-04-01T00:52:40;99315.66;;;11.05;59.50
62055;BME280;48653;51.742;-1.256;2023-04-01T00:55:06;99318.63;;;10.64;61.06
62055;BME280;48653;51.742;-1.256;2023-04-01T00:57:34;99315.90;;;11.22;59.26
62055;BME280;48653;51.742;-1.256;2023-04-01T00:59:56;99320.96;;;11.07;60.02
62055;BME280;48653;51.742;-1.256;2023-04-01T01:02:22;99324.37;;;11.02;60.64
62055;BME280;48653;51.742;-1.256;2023-04-01T01:04:46;99323.75;;;11.09;59.83
62055;BME280;48653;51.742;-1.256;2023-04-01T01:07:18;99323.47;;;10.60;60.90
62055;BME280;48653;51.742;-1.256;2023-04-01T01:09:43;99322.83;;;10.64;60.41
62055;BME280;48653;51.742;-1.256;2023-04-01T01:12:07;99325.34;;;10.93;59.71
62055;BME280;48653;51.742;-1.256;2023-04-01T01:14:36;99324.27;;;11.12;59.23
62055;BME280;48653;51.742;-1.256;2023-04-01T01:16:56;99326.64;;;10.48;60.32
62055;BME280;48653;51.742;-1.256;2023-04-01T01:19:32;99323.62;;;11.02;59.28
62055;BME280;48653;51.742;-1.256;2023-04-01T01:21:51;99329.12;;;11.24;59.51
62055;BME280;48653;51.742;-1.256;2023-04-01T01:24:18;99328.66;;;11.26;59.40
62055;BME280;48653;51.742;-1.256;2023-04-01T01:26:44;99333.66;;;10.92;59.43
62055;BME280;48653;51.742;-1.256;2023-04-01T01:29:06;99336.85;;;10.89;59.54
62055;BME280;48653;51.742;-1.256;2023-04-01T01:31:29;99337.88;;;11.46;59.04
62055;BME280;48653;51.742;-1.256;2023-04-01T01:34:01;99341.07;;;11.21;58.51
62055;BME280;48653;51.742;-1.256;2023-04-01T01:36:15;99344.61;;;11.56;58.20
62055;BME280;48653;51.742;-1.256;2023-04-01T01:38:40;99352.04;;;10.91;59.48
62055;BME280;48653;51.742;-1.256;2023-04-01T01:41:07;99354.31;;;10.74;59.95
62055;BME280;48653;51.742;-1.256;2023-04-01T01:43:33;99356.40;;;11.05;59.63
62055;BME280;48653;51.742;-1.256;2023-04-01T01:45:58;99358.76;;;11.20;58.86
62055;BME280;48653;51.742;-1.256;2023-04-01T01:48:23;99357.57;;;11.69;57.89
62055;BME280;48653;51.742;-1.256;2023-04-01T01:50:48;99367.19;;;11.32;58.56
62055;BME280;48653;51.742;-1.256;2023-04-01T01:53:12;99364.64;;;11.40;58.23
62055;BME280;48653;51.742;-1.256;2023-04-01T01:55:38;99373.31;;;11.20;58.83
62055;BME280;48653;51.742;-1.256;2023-04-01T01:58:05;99368.62;;;12.02;57.04
62055;BME280;48653;51.742;-1.256;2023-04-01T02:00:28;99370.17;;;11.63;57.70
62055;BME280;48653;51.742;-1.256;2023-04-01T02:02:53;99372.91;;;11.12;58.13
62055;BME280;48653;51.742;-1.256;2023-04-01T02:05:21;99381.47;;;11.36;58.38
62055;BME280;48653;51.742;-1.256;2023-04-01T02:07:48;99383.91;;;10.45;60.67
62055;BME280;48653;51.742;-1.256;2023-04-01T02:10:10;99386.33;;;11.07;58.95
62055;BME280;48653;51.742;-1.256;2023-04-01T02:12:35;99393.22;;;10.89;59.22
62055;BME280;48653;51.742;-1.256;2023-04-01T02:15:04;99394.60;;;11.53;57.99
62055;BME280;48653;51.742;-1.256;2023-04-01T02:17:27;99393.06;;;11.86;57.13
62055;BME280;48653;51.742;-1.256;2023-04-01T02:19:54;99397.66;;;11.13;58.22
62055;BME280;48653;51.742;-1.256;2023-04-01T02:22:19;99403.89;;;10.91;58.36
62055;BME280;48653;51.742;-1.256;2023-04-01T02:24:42;99407.26;;;10.77;59.84
62055;BME280;48653;51.742;-1.256;2023-04-01T02:27:07;99409.93;;;10.37;59.93
62055;BME280;48653;51.742;-1.256;2023-04-01T02:29:32;99410.15;;;10.31;60.37
62055;BME280;48653;51.742;-1.256;2023-04-01T02:31:58;99414.01;;;9.64;61.47
62055;BME280;48653;51.742;-1.256;2023-04-01T02:34:24;99414.78;;;9.75;61.03
62055;BME280;48653;51.742;-1.256;2023-04-01T02:36:50;99418.00;;;9.73;61.25
62055;BME280;48653;51.742;-1.256;2023-04-01T02:39:14;99418.39;;;9.75;61.15
62055;BME280;48653;51.742;-1.256;2023-04-01T02:41:39;99419.04;;;9.98;60.80
62055;BME280;48653;51.742;-1.256;2023-04-01T02:44:05;99419.40;;;10.09;59.51
62055;BME280;48653;51.742;-1.256;2023-04-01T02:46:29;99419.54;;;9.70;61.01
62055;BME280;48653;51.742;-1.256;2023-04-01T02:48:55;99421.87;;;9.96;60.44
62055;BME280;48653;51.742;-1.256;2023-04-01T02:51:20;99422.37;;;9.84;59.99
62055;BME280;48653;51.742;-1.256;2023-04-01T02:53:45;99424.49;;;9.89;60.05
62055;BME280;48653;51.742;-1.256;2023-04-01T02:56:10;99423.95;;;10.10;59.84
62055;BME280;48653;51.742;-1.256;2023-04-01T02:58:36;99426.45;;;9.70;59.91
62055;BME280;48653;51.742;-1.256;2023-04-01T03:01:01;99429.73;;;10.36;58.37
62055;BME280;48653;51.742;-1.256;2023-04-01T03:03:27;99431.50;;;10.09;59.53
62055;BME280;48653;51.742;-1.256;2023-04-01T03:05:52;99438.15;;;10.36;58.57
62055;BME280;48653;51.742;-1.256;2023-04-01T03:08:18;99440.75;;;10.37;58.34
62055;BME280;48653;51.742;-1.256;2023-04-01T03:10:43;99440.46;;;10.41;58.80
62055;BME280;48653;51.742;-1.256;2023-04-01T03:13:09;99445.32;;;10.75;58.16
62055;BME280;48653;51.742;-1.256;2023-04-01T03:15:34;99442.97;;;10.40;58.86
62055;BME280;48653;51.742;-1.256;2023-04-01T03:17:59;99443.96;;;10.18;58.34
62055;BME280;48653;51.742;-1.256;2023-04-01T03:20:24;99449.87;;;10.34;58.12
62055;BME280;48653;51.742;-1.256;2023-04-01T03:22:50;99451.00;;;10.23;59.06
62055;BME280;48653;51.742;-1.256;2023-04-01T03:25:15;99456.62;;;10.51;58.06
62055;BME280;48653;51.742;-1.256;2023-04-01T03:27:40;99452.95;;;10.44;58.57
62055;BME280;48653;51.742;-1.256;2023-04-01T03:30:07;99453.79;;;9.78;59.84
62055;BME280;48653;51.742;-1.256;2023-04-01T03:32:31;99456.27;;;10.55;58.32
62055;BME280;48653;51.742;-1.256;2023-04-01T03:34:56;99458.39;;;10.36;58.17
62055;BME280;48653;51.742;-1.256;2023-04-01T03:37:21;99464.20;;;10.44;57.87
62055;BME280;48653;51.742;-1.256;2023-04-01T03:39:46;99463.72;;;10.34;58.63
62055;BME280;48653;51.742;-1.256;2023-04-01T03:42:12;99467.80;;;11.03;57.22
62055;BME280;48653;51.742;-1.256;2023-04-01T03:44:37;99471.47;;;10.55;57.71
62055;BME280;48653;51.742;-1.256;2023-04-01T03:47:03;99469.06;;;10.79;57.31
62055;BME280;48653;51.742;-1.256;2023-04-01T03:49:28;99471.34;;;10.60;57.42
62055;BME280;48653;51.742;-1.256;2023-04-01T03:51:53;99470.57;;;10.50;57.95
62055;BME280;48653;51.742;-1.256;2023-04-01T03:54:19;99471.27;;;9.94;58.07
62055;BME280;48653;51.742;-1.256;2023-04-01T03:56:44;99472.21;;;10.04;58.90
62055;BME280;48653;51.742;-1.256;2023-04-01T03:59:10;99476.19;;;10.28;58.18
62055;BME280;48653;51.742;-1.256;2023-04-01T04:01:35;99480.24;;;10.17;58.41
62055;BME280;48653;51.742;-1.256;2023-04-01T04:04:00;99484.04;;;10.07;59.88
62055;BME280;48653;51.742;-1.256;2023-04-01T04:06:26;99489.32;;;9.99;59.02
62055;BME280;48653;51.742;-1.256;2023-04-01T04:08:51;99494.37;;;10.47;58.09
62055;BME280;48653;51.742;-1.256;2023-04-01T04:11:18;99494.72;;;9.79;59.35
62055;BME280;48653;51.742;-1.256;2023-04-01T04:13:43;99496.03;;;9.58;59.52
62055;BME280;48653;51.742;-1.256;2023-04-01T04:16:09;99495.79;;;10.04;58.50
62055;BME280;48653;51.742;-1.256;2023-04-01T04:18:34;99498.62;;;9.77;59.33
62055;BME280;48653;51.742;-1.256;2023-04-01T04:20:59;99497.84;;;10.06;58.79
62055;BME280;48653;51.742;-1.256;2023-04-01T04:23:24;99502.12;;;10.94;56.62
62055;BME280;48653;51.742;-1.256;2023-04-01T04:25:56;99508.16;;;10.57;57.44
62055;BME280;48653;51.742;-1.256;2023-04-01T04:28:15;99508.99;;;10.40;57.04
62055;BME280;48653;51.742;-1.256;2023-04-01T04:30:40;99511.53;;;10.75;56.61
62055;BME280;48653;51.742;-1.256;2023-04-01T04:33:05;99513.16;;;10.44;56.29
62055;BME280;48653;51.742;-1.256;2023-04-01T04:35:31;99516.97;;;10.14;57.38
62055;BME280;48653;51.742;-1.256;2023-04-01T04:37:56;99515.72;;;10.93;55.99
62055;BME280;48653;51.742;-1.256;2023-04-01T04:40:21;99519.81;;;9.34;58.68
62055;BME280;48653;51.742;-1.256;2023-04-01T04:42:46;99520.90;;;10.34;57.41
62055;BME280;48653;51.742;-1.256;2023-04-01T04:45:12;99523.35;;;10.28;57.47
62055;BME280;48653;51.742;-1.256;2023-04-01T04:47:37;99523.75;;;10.61;56.98
62055;BME280;48653;51.742;-1.256;2023-04-01T04:50:04;99530.36;;;9.83;58.73
62055;BME280;48653;51.742;-1.256;2023-04-01T04:52:29;99531.83;;;10.27;57.65
62055;BME280;48653;51.742;-1.256;2023-04-01T04:54:54;99535.00;;;10.04;57.21
62055;BME280;48653;51.742;-1.256;2023-04-01T04:57:20;99541.45;;;9.89;57.88
62055;BME280;48653;51.742;-1.256;2023-04-01T04:59:46;99540.97;;;10.44;57.13
62055;BME280;48653;51.742;-1.256;2023-04-01T05:02:11;99545.37;;;10.04;58.21
62055;BME280;48653;51.742;-1.256;2023-04-01T05:04:37;99547.60;;;9.50;59.14
62055;BME280;48653;51.742;-1.256;2023-04-01T05:07:02;99549.43;;;9.80;58.59
62055;BME280;48653;51.742;-1.256;2023-04-01T05:09:28;99550.55;;;9.85;58.78
62055;BME280;48653;51.742;-1.256;2023-04-01T05:11:54;99560.89;;;8.75;61.33
62055;BME280;48653;51.742;-1.256;2023-04-01T05:14:19;99559.43;;;8.63;61.18
62055;BME280;48653;51.742;-1.256;2023-04-01T05:16:44;99561.50;;;9.47;60.17
62055;BME280;48653;51.742;-1.256;2023-04-01T05:19:10;99565.07;;;8.65;62.35
62055;BME280;48653;51.742;-1.256;2023-04-01T05:21:35;99569.35;;;8.88;62.00
62055;BME280;48653;51.742;-1.256;2023-04-01T05:24:01;99571.46;;;8.99;62.10
62055;BME280;48653;51.742;-1.256;2023-04-01T05:26:26;99576.22;;;8.25;63.28
62055;BME280;48653;51.742;-1.256;2023-04-01T05:28:51;99580.02;;;8.81;61.96
62055;BME280;48653;51.742;-1.256;2023-04-01T05:31:17;99582.88;;;8.89;60.55
62055;BME280;48653;51.742;-1.256;2023-04-01T05:33:42;99587.67;;;8.52;61.71
62055;BME280;48653;51.742;-1.256;2023-04-01T05:36:09;99591.24;;;8.34;61.98
62055;BME280;48653;51.742;-1.256;2023-04-01T05:38:33;99592.50;;;8.57;61.28
62055;BME280;48653;51.742;-1.256;2023-04-01T05:41:00;99593.29;;;9.05;60.41
62055;BME280;48653;51.742;-1.256;2023-04-01T05:43:23;99593.96;;;8.77;60.12
62055;BME280;48653;51.742;-1.256;2023-04-01T05:45:49;99599.25;;;9.49;58.69
62055;BME280;48653;51.742;-1.256;2023-04-01T05:48:14;99601.79;;;9.51;58.20
62055;BME280;48653;51.742;-1.256;2023-04-01T05:50:40;99606.66;;;9.54;58.10
62055;BME280;48653;51.742;-1.256;2023-04-01T05:53:05;99610.55;;;9.06;59.36
62055;BME280;48653;51.742;-1.256;2023-04-01T05:55:30;99613.94;;;8.71;59.90
62055;BME280;48653;51.742;-1.256;2023-04-01T05:57:55;99619.07;;;8.52;59.85
62055;BME280;48653;51.742;-1.256;2023-04-01T06:00:20;99621.86;;;8.73;59.71
62055;BME280;48653;51.742;-1.256;2023-04-01T06:02:45;99623.48;;;8.86;59.87
62055;BME280;48653;51.742;-1.256;2023-04-01T06:05:16;99628.67;;;9.25;59.03
62055;BME280;48653;51.742;-1.256;2023-04-01T06:07:36;99632.90;;;8.31;61.64
62055;BME280;48653;51.742;-1.256;2023-04-01T06:10:10;99631.72;;;8.45;60.02
62055;BME280;48653;51.742;-1.256;2023-04-01T06:12:41;99636.34;;;8.33;60.53
62055;BME280;48653;51.742;-1.256;2023-04-01T06:15:01;99633.52;;;8.56;60.09
62055;BME280;48653;51.742;-1.256;2023-04-01T06:17:26;99634.65;;;8.97;59.20
62055;BME280;48653;51.742;-1.256;2023-04-01T06:19:50;99640.67;;;9.43;58.55
62055;BME280;48653;51.742;-1.256;2023-04-01T06:22:22;99649.98;;;8.42;60.77
62055;BME280;48653;51.742;-1.256;2023-04-01T06:24:48;99652.60;;;8.33;60.94
62055;BME280;48653;51.742;-1.256;2023-04-01T06:27:07;99649.75;;;8.45;59.50
62055;BME280;48653;51.742;-1.256;2023-04-01T06:29:44;99648.17;;;9.16;59.02
62055;BME280;48653;51.742;-1.256;2023-04-01T06:32:05;99648.90;;;8.69;59.03
62055;BME280;48653;51.742;-1.256;2023-04-01T06:34:34;99652.25;;;8.96;57.82
62055;BME280;48653;51.742;-1.256;2023-04-01T06:36:55;99656.13;;;8.81;58.17
62055;BME280;48653;51.742;-1.256;2023-04-01T06:39:19;99656.48;;;9.18;58.22
62055;BME280;48653;51.742;-1.256;2023-04-01T06:44:07;99664.95;;;9.46;57.07
62055;BME280;48653;51.742;-1.256;2023-04-01T06:46:31;99668.69;;;9.82;56.49
62055;BME280;48653;51.742;-1.256;2023-04-01T06:49:02;99672.03;;;9.93;56.12
62055;BME280;48653;51.742;-1.256;2023-04-01T06:51:22;99676.23;;;9.82;55.86
62055;BME280;48653;51.742;-1.256;2023-04-01T06:53:46;99678.74;;;9.74;55.49
62055;BME280;48653;51.742;-1.256;2023-04-01T06:56:08;99678.52;;;9.59;56.52
62055;BME280;48653;51.742;-1.256;2023-04-01T06:58:34;99678.08;;;9.30;57.21
62055;BME280;48653;51.742;-1.256;2023-04-01T07:00:58;99684.76;;;8.48;58.61
62055;BME280;48653;51.742;-1.256;2023-04-01T07:03:26;99684.52;;;9.14;57.48
62055;BME280;48653;51.742;-1.256;2023-04-01T07:05:46;99691.37;;;8.48;58.76
62055;BME280;48653;51.742;-1.256;2023-04-01T07:08:15;99688.73;;;9.44;57.30
62055;BME280;48653;51.742;-1.256;2023-04-01T07:10:43;99694.21;;;9.63;56.87
62055;BME280;48653;51.742;-1.256;2023-04-01T07:13:05;99700.10;;;9.33;56.61
62055;BME280;48653;51.742;-1.256;2023-04-01T07:15:30;99704.17;;;9.58;55.67
62055;BME280;48653;51.742;-1.256;2023-04-01T07:17:56;99705.60;;;9.42;56.61
62055;BME280;48653;51.742;-1.256;2023-04-01T07:20:23;99710.11;;;9.71;55.86
62055;BME280;48653;51.742;-1.256;2023-04-01T07:22:45;99713.01;;;9.40;56.26
62055;BME280;48653;51.742;-1.256;2023-04-01T07:25:13;99718.48;;;9.76;55.82
62055;BME280;48653;51.742;-1.256;2023-04-01T07:27:34;99719.11;;;9.13;56.62
62055;BME280;48653;51.742;-1.256;2023-04-01T07:30:01;99723.75;;;9.21;56.33
62055;BME280;48653;51.742;-1.256;2023-04-01T07:32:33;99727.33;;;9.14;56.37
62055;BME280;48653;51.742;-1.256;2023-04-01T07:35:00;99726.40;;;9.20;56.61
62055;BME280;48653;51.742;-1.256;2023-04-01T07:37:20;99727.71;;;9.15;56.94
62055;BME280;48653;51.742;-1.256;2023-04-01T07:39:48;99730.00;;;9.34;56.15
62055;BME280;48653;51.742;-1.256;2023-04-01T07:42:14;99729.13;;;9.78;55.77
62055;BME280;48653;51.742;-1.256;2023-04-01T07:44:39;99729.68;;;9.56;56.08
62055;BME280;48653;51.742;-1.256;2023-04-01T07:47:07;99736.57;;;9.21;56.97
62055;BME280;48653;51.742;-1.256;2023-04-01T07:49:30;99740.66;;;9.84;55.77
62055;BME280;48653;51.742;-1.256;2023-04-01T07:51:54;99746.99;;;10.00;56.12
62055;BME280;48653;51.742;-1.256;2023-04-01T07:54:20;99749.55;;;9.55;56.05
62055;BME280;48653;51.742;-1.256;2023-04-01T07:56:42;99752.91;;;9.76;55.50
62055;BME280;48653;51.742;-1.256;2023-04-01T07:59:09;99757.43;;;9.73;55.77
62055;BME280;48653;51.742;-1.256;2023-04-01T08:01:35;99762.99;;;9.85;55.63
62055;BME280;48653;51.742;-1.256;2023-04-01T08:04:08;99768.14;;;9.24;56.69
62055;BME280;48653;51.742;-1.256;2023-04-01T08:06:26;99774.46;;;10.35;54.71
62055;BME280;48653;51.742;-1.256;2023-04-01T08:08:55;99775.48;;;10.42;54.59
62055;BME280;48653;51.742;-1.256;2023-04-01T08:11:20;99777.33;;;10.37;54.31
62055;BME280;48653;51.742;-1.256;2023-04-01T08:13:40;99777.61;;;10.64;53.07
62055;BME280;48653;51.742;-1.256;2023-04-01T08:16:09;99784.86;;;10.50;53.48
62055;BME280;48653;51.742;-1.256;2023-04-01T08:18:33;99790.75;;;10.19;54.37
62055;BME280;48653;51.742;-1.256;2023-04-01T08:20:55;99800.85;;;9.32;55.85
62055;BME280;48653;51.742;-1.256;2023-04-01T08:23:21;99800.43;;;9.74;55.30
62055;BME280;48653;51.742;-1.256;2023-04-01T08:25:48;99806.41;;;9.49;56.83
62055;BME280;48653;51.742;-1.256;2023-04-01T08:28:16;99809.46;;;9.11;56.63
62055;BME280;48653;51.742;-1.256;2023-04-01T08:30:40;99812.37;;;8.62;57.62
62055;BME280;48653;51.742;-1.256;2023-04-01T08:33:03;99818.92;;;8.48;58.91
62055;BME280;48653;51.742;-1.256;2023-04-01T08:35:29;99823.39;;;8.83;58.77
62055;BME280;48653;51.742;-1.256;2023-04-01T08:37:51;99826.58;;;8.42;59.10
62055;BME280;48653;51.742;-1.256;2023-04-01T08:40:37;99828.49;;;9.29;57.89
62055;BME280;48653;51.742;-1.256;2023-04-01T08:42:52;99832.51;;;9.27;57.32
62055;BME280;48653;51.742;-1.256;2023-04-01T08:45:18;99837.44;;;8.93;57.75
62055;BME280;48653;51.742;-1.256;2023-04-01T08:47:42;99840.47;;;9.46;57.23
62055;BME280;48653;51.742;-1.256;2023-04-01T08:52:34;99845.17;;;9.81;56.34
62055;BME280;48653;51.742;-1.256;2023-04-01T08:54:58;99850.28;;;8.98;56.89
62055;BME280;48653;51.742;-1.256;2023-04-01T08:57:21;99857.27;;;8.84;58.12
62055;BME280;48653;51.742;-1.256;2023-04-01T08:59:53;99860.57;;;9.84;56.62
62055;BME280;48653;51.742;-1.256;2023-04-01T09:02:16;99863.20;;;7.77;59.30
62055;BME280;48653;51.742;-1.256;2023-04-01T09:04:45;99868.60;;;8.53;58.60
62055;BME280;48653;51.742;-1.256;2023-04-01T09:07:09;99871.51;;;8.24;58.50
62055;BME280;48653;51.742;-1.256;2023-04-01T09:09:37;99872.94;;;8.83;58.30
62055;BME280;48653;51.742;-1.256;2023-04-01T09:14:29;99878.82;;;8.20;58.29
62055;BME280;48653;51.742;-1.256;2023-04-01T09:19:17;99878.66;;;9.27;57.82
62055;BME280;48653;51.742;-1.256;2023-04-01T09:21:43;99881.29;;;9.49;56.02
62055;BME280;48653;51.742;-1.256;2023-04-01T09:26:28;99887.88;;;9.90;54.97
62055;BME280;48653;51.742;-1.256;2023-04-01T09:28:51;99891.28;;;9.43;56.03
62055;BME280;48653;51.742;-1.256;2023-04-01T09:36:06;99889.10;;;10.29;53.51
62055;BME280;48653;51.742;-1.256;2023-04-01T09:38:29;99890.20;;;10.68;53.87
62055;BME280;48653;51.742;-1.256;2023-04-01T09:40:56;99893.27;;;10.28;53.16
62055;BME280;48653;51.742;-1.256;2023-04-01T09:43:25;99902.82;;;9.37;55.56
62055;BME280;48653;51.742;-1.256;2023-04-01T09:45:47;99902.40;;;10.03;54.36
62055;BME280;48653;51.742;-1.256;2023-04-01T09:48:27;99906.15;;;9.68;55.93
62055;BME280;48653;51.742;-1.256;2023-04-01T09:50:38;99909.74;;;8.87;57.37
62055;BME280;48653;51.742;-1.256;2023-04-01T09:53:05;99908.84;;;8.60;57.89
62055;BME280;48653;51.742;-1.256;2023-04-01T10:05:25;99923.78;;;8.87;56.79
62055;BME280;48653;51.742;-1.256;2023-04-01T10:07:47;99926.54;;;9.31;56.64
62055;BME280;48653;51.742;-1.256;2023-04-01T10:15:00;99940.85;;;8.82;59.24
62055;BME280;48653;51.742;-1.256;2023-04-01T10:17:26;99948.15;;;8.42;58.93
62055;BME280;48653;51.742;-1.256;2023-04-01T10:22:15;99955.00;;;8.35;59.26
62055;BME280;48653;51.742;-1.256;2023-04-01T10:24:34;99962.88;;;8.31;58.84
62055;BME280;48653;51.742;-1.256;2023-04-01T10:27:03;99965.85;;;8.40;58.74
62055;BME280;48653;51.742;-1.256;2023-04-01T10:34:24;99974.23;;;9.04;56.33
62055;BME280;48653;51.742;-1.256;2023-04-01T10:36:50;99975.25;;;8.80;57.70
62055;BME280;48653;51.742;-1.256;2023-04-01T10:39:12;99974.99;;;8.84;57.19
62055;BME280;48653;51.742;-1.256;2023-04-01T10:48:47;99987.85;;;9.41;55.88
62055;BME280;48653;51.742;-1.256;2023-04-01T10:51:14;99987.90;;;10.32;55.10
62055;BME280;48653;51.742;-1.256;2023-04-01T10:56:05;99996.73;;;9.58;55.27
62055;BME280;48653;51.742;-1.256;2023-04-01T11:05:52;100010.84;;;9.11;56.01
62055;BME280;48653;51.742;-1.256;2023-04-01T11:20:24;100023.98;;;9.08;57.71
62055;BME280;48653;51.742;-1.256;2023-04-01T11:22:43;100030.65;;;9.53;56.10
62055;BME280;48653;51.742;-1.256;2023-04-01T11:25:09;100035.15;;;9.84;56.33
62055;BME280;48653;51.742;-1.256;2023-04-01T11:27:35;100037.82;;;9.96;55.64
62055;BME280;48653;51.742;-1.256;2023-04-01T11:30:02;100040.16;;;8.57;56.84
62055;BME280;48653;51.742;-1.256;2023-04-01T11:32:25;100038.38;;;8.74;57.05
62055;BME280;48653;51.742;-1.256;2023-04-01T11:34:51;100039.76;;;9.77;54.89
62055;BME280;48653;51.742;-1.256;2023-04-01T11:37:12;100048.18;;;9.39;55.14
62055;BME280;48653;51.742;-1.256;2023-04-01T11:39:34;100048.89;;;9.60;55.66
62055;BME280;48653;51.742;-1.256;2023-04-01T11:42:03;100056.83;;;10.15;54.31
62055;BME280;48653;51.742;-1.256;2023-04-01T11:44:22;100060.39;;;9.56;54.87
62055;BME280;48653;51.742;-1.256;2023-04-01T11:47:00;100069.03;;;10.23;54.14
62055;BME280;48653;51.742;-1.256;2023-04-01T11:49:23;100076.85;;;9.96;53.60
62055;BME280;48653;51.742;-1.256;2023-04-01T11:51:47;100080.82;;;10.27;53.39
62055;BME280;48653;51.742;-1.256;2023-04-01T11:54:07;100085.38;;;9.80;52.90
62055;BME280;48653;51.742;-1.256;2023-04-01T11:56:35;100085.47;;;10.22;52.71
62055;BME280;48653;51.742;-1.256;2023-04-01T11:59:03;100093.77;;;9.98;53.67
62055;BME280;48653;51.742;-1.256;2023-04-01T12:01:27;100093.01;;;9.64;54.36
62055;BME280;48653;51.742;-1.256;2023-04-01T12:03:57;100098.58;;;10.01;53.98
62055;BME280;48653;51.742;-1.256;2023-04-01T12:06:13;100102.43;;;9.76;53.72
62055;BME280;48653;51.742;-1.256;2023-04-01T12:08:42;100106.59;;;10.14;53.34
62055;BME280;48653;51.742;-1.256;2023-04-01T12:11:04;100110.64;;;9.23;55.00
62055;BME280;48653;51.742;-1.256;2023-04-01T12:13:31;100111.19;;;9.90;54.67
62055;BME280;48653;51.742;-1.256;2023-04-01T12:16:07;100118.31;;;9.78;54.16
62055;BME280;48653;51.742;-1.256;2023-04-01T12:18:17;100119.73;;;9.38;55.15
62055;BME280;48653;51.742;-1.256;2023-04-01T12:20:45;100125.66;;;9.50;54.13
62055;BME280;48653;51.742;-1.256;2023-04-01T12:23:18;100132.91;;;9.50;54.21
62055;BME280;48653;51.742;-1.256;2023-04-01T12:28:03;100139.12;;;9.92;53.28
62055;BME280;48653;51.742;-1.256;2023-04-01T12:30:33;100142.33;;;9.66;53.68
62055;BME280;48653;51.742;-1.256;2023-04-01T12:32:49;100144.78;;;9.51;54.39
62055;BME280;48653;51.742;-1.256;2023-04-01T12:35:19;100147.88;;;9.83;53.87
62055;BME280;48653;51.742;-1.256;2023-04-01T12:37:41;100149.86;;;8.81;55.20
62055;BME280;48653;51.742;-1.256;2023-04-01T12:40:18;100155.79;;;8.46;56.23
62055;BME280;48653;51.742;-1.256;2023-04-01T12:42:39;100156.97;;;8.90;55.57
62055;BME280;48653;51.742;-1.256;2023-04-01T12:45:00;100162.03;;;10.26;52.75
62055;BME280;48653;51.742;-1.256;2023-04-01T12:47:42;100163.54;;;10.04;52.29
62055;BME280;48653;51.742;-1.256;2023-04-01T12:49:50;100165.40;;;9.28;54.31
62055;BME280;48653;51.742;-1.256;2023-04-01T12:52:10;100165.01;;;9.98;53.39
62055;BME280;48653;51.742;-1.256;2023-04-01T12:54:48;100176.78;;;9.66;54.23
62055;BME280;48653;51.742;-1.256;2023-04-01T12:57:10;100176.17;;;9.65;54.29
62055;BME280;48653;51.742;-1.256;2023-04-01T12:59:40;100177.32;;;10.30;52.91
62055;BME280;48653;51.742;-1.256;2023-04-01T13:01:59;100186.49;;;9.76;54.03
62055;BME280;48653;51.742;-1.256;2023-04-01T13:06:50;100193.24;;;10.06;52.46
62055;BME280;48653;51.742;-1.256;2023-04-01T13:09:16;100197.44;;;8.92;54.64
62055;BME280;48653;51.742;-1.256;2023-04-01T13:11:38;100196.60;;;9.36;54.31
62055;BME280;48653;51.742;-1.256;2023-04-01T13:16:23;100190.78;;;10.64;52.49
62055;BME280;48653;51.742;-1.256;2023-04-01T13:18:56;100191.19;;;11.25;50.67
62055;BME280;48653;51.742;-1.256;2023-04-01T13:21:15;100192.83;;;11.39;50.11
62055;BME280;48653;51.742;-1.256;2023-04-01T13:23:45;100196.94;;;10.99;49.56
62055;BME280;48653;51.742;-1.256;2023-04-01T13:26:08;100197.31;;;10.68;50.41
62055;BME280;48653;51.742;-1.256;2023-04-01T13:28:30;100206.99;;;10.21;51.43
62055;BME280;48653;51.742;-1.256;2023-04-01T13:30:59;100205.11;;;10.19;52.21
62055;BME280;48653;51.742;-1.256;2023-04-01T13:33:25;100212.45;;;10.89;48.94
62055;BME280;48653;51.742;-1.256;2023-04-01T13:35:48;100212.15;;;10.46;50.30
62055;BME280;48653;51.742;-1.256;2023-04-01T13:38:22;100219.79;;;10.63;50.44
62055;BME280;48653;51.742;-1.256;2023-04-01T13:40:41;100220.79;;;10.78;50.31
62055;BME280;48653;51.742;-1.256;2023-04-01T13:43:04;100225.14;;;11.14;49.46
62055;BME280;48653;51.742;-1.256;2023-04-01T13:45:32;100228.11;;;11.32;48.31
62055;BME280;48653;51.742;-1.256;2023-04-01T13:50:25;100230.38;;;11.17;48.25
62055;BME280;48653;51.742;-1.256;2023-04-01T13:53:00;100231.06;;;11.03;48.67
62055;BME280;48653;51.742;-1.256;2023-04-01T13:55:19;100239.61;;;11.21;48.40
62055;BME280;48653;51.742;-1.256;2023-04-01T13:57:43;100243.22;;;11.47;48.84
62055;BME280;48653;51.742;-1.256;2023-04-01T14:00:10;100243.76;;;10.77;49.86